Time;durP1;ratioP1;P1;durP2;ratioP2;P2;SDS_P1;SDS_P2;PMS_P1;PMS_P2;Temp;Humidity;BMP_temperature;BMP_pressure;BME280_temperature;BME280_humidity;BME280_pressure;Samples;Min_cycle;Max_cycle;Signal;HPM_P1;HPM_P2
2022/06/30 00:00:25;;;;;;;6.00;3.55;;;21.40;94.70;;;;;;5102296;27;45988;-71
2022/06/30 00:02:51;;;;;;;9.18;3.42;;;21.40;94.60;;;;;;5102770;27;45436;-71
2022/06/30 00:05:18;;;;;;;4.47;3.17;;;21.40;94.60;;;;;;5103732;27;45497;-71
2022/06/30 00:07:46;;;;;;;5.32;3.10;;;21.50;94.60;;;;;;5101431;27;45408;-71
2022/06/30 00:10:13;;;;;;;5.70;3.30;;;21.50;94.60;;;;;;5098442;27;45449;-71
2022/06/30 00:12:41;;;;;;;8.05;3.20;;;21.40;94.60;;;;;;5099393;27;45418;-71
2022/06/30 00:15:08;;;;;;;11.52;3.55;;;21.40;94.60;;;;;;5096772;27;45528;-70
2022/06/30 00:17:35;;;;;;;5.50;3.33;;;21.40;94.60;;;;;;5101629;27;47838;-71
2022/06/30 00:20:02;;;;;;;5.70;3.72;;;21.40;94.40;;;;;;5101336;27;45684;-71
2022/06/30 00:22:29;;;;;;;10.10;3.38;;;21.40;93.90;;;;;;5098731;27;45472;-71
2022/06/30 00:24:57;;;;;;;8.48;4.53;;;21.30;94.40;;;;;;5102654;27;45600;-71
2022/06/30 00:27:24;;;;;;;8.82;3.65;;;21.30;94.50;;;;;;5096874;27;45495;-70
2022/06/30 00:29:51;;;;;;;4.20;3.22;;;21.20;94.60;;;;;;5100243;27;45485;-70
2022/06/30 00:32:18;;;;;;;5.35;3.50;;;21.10;94.90;;;;;;5105780;27;45399;-71
2022/06/30 00:34:44;;;;;;;5.20;3.55;;;21.10;95.00;;;;;;5104211;27;45268;-71
2022/06/30 00:37:11;;;;;;;8.32;3.65;;;21.20;95.30;;;;;;5101971;27;45297;-70
2022/06/30 00:39:38;;;;;;;4.50;3.72;;;21.20;94.70;;;;;;5100815;27;45369;-70
2022/06/30 00:42:07;;;;;;;3.92;3.53;;;21.10;94.60;;;;;;5103715;27;45474;-71
2022/06/30 00:44:34;;;;;;;5.15;3.40;;;21.00;95.00;;;;;;5104034;27;45309;-70
2022/06/30 00:47:01;;;;;;;8.18;3.85;;;21.00;95.00;;;;;;5103904;27;46414;-71
2022/06/30 00:49:29;;;;;;;5.43;3.65;;;21.00;95.20;;;;;;5100870;27;45307;-71
2022/06/30 00:51:56;;;;;;;4.65;3.17;;;20.90;95.50;;;;;;5103530;27;45358;-71
2022/06/30 00:54:24;;;;;;;5.82;3.38;;;20.90;95.40;;;;;;5096411;27;45596;-71
2022/06/30 00:56:53;;;;;;;6.53;3.33;;;20.90;95.30;;;;;;5098961;27;48032;-71
2022/06/30 00:59:22;;;;;;;5.03;3.45;;;20.80;95.40;;;;;;5098164;27;45438;-71
2022/06/30 01:01:50;;;;;;;3.75;3.00;;;20.70;95.50;;;;;;5098283;27;45352;-71
2022/06/30 01:04:18;;;;;;;5.72;3.30;;;20.70;95.80;;;;;;5095656;27;45575;-71
2022/06/30 01:06:45;;;;;;;4.55;3.70;;;20.70;96.20;;;;;;5098415;27;47918;-71
2022/06/30 01:12:41;;;;;;;10.15;4.55;;;20.80;96.30;;;;;;5094229;27;45548;-72
2022/06/30 01:14:45;;;;;;;7.35;5.28;;;20.90;96.70;;;;;;5095633;27;45423;-70
2022/06/30 01:17:12;;;;;;;6.45;4.53;;;21.00;96.80;;;;;;5099884;27;46421;-70
2022/06/30 01:19:50;;;;;;;6.63;4.63;;;21.00;96.80;;;;;;5097327;27;45371;-71
2022/06/30 01:22:18;;;;;;;4.97;3.72;;;21.00;96.10;;;;;;5096931;27;45447;-71
2022/06/30 01:24:45;;;;;;;6.55;4.38;;;20.80;96.00;;;;;;5099647;27;45376;-71
2022/06/30 01:27:12;;;;;;;5.78;4.00;;;20.80;96.30;;;;;;5096735;27;45415;-71
2022/06/30 01:29:39;;;;;;;6.18;3.78;;;20.70;96.70;;;;;;5097991;27;45495;-71
2022/06/30 01:32:07;;;;;;;4.93;3.83;;;20.70;96.80;;;;;;5102456;27;45509;-71
2022/06/30 01:34:33;;;;;;;7.65;4.47;;;20.70;97.10;;;;;;5102442;27;45337;-71
2022/06/30 01:37:00;;;;;;;4.90;4.13;;;20.80;97.30;;;;;;5096040;27;47540;-71
2022/06/30 01:39:28;;;;;;;10.68;5.35;;;20.80;97.50;;;;;;5094769;27;45299;-71
2022/06/30 01:41:55;;;;;;;6.82;5.30;;;20.90;97.50;;;;;;5096033;27;45477;-71
2022/06/30 01:44:22;;;;;;;7.00;5.38;;;20.90;97.50;;;;;;5098226;27;46804;-71
2022/06/30 01:46:49;;;;;;;7.70;4.90;;;20.90;97.50;;;;;;5096069;27;47508;-71
2022/06/30 01:49:17;;;;;;;7.25;4.57;;;20.80;96.50;;;;;;5097746;27;45593;-71
2022/06/30 01:51:43;;;;;;;7.80;4.55;;;20.70;96.80;;;;;;5098109;27;45393;-71
2022/06/30 01:54:10;;;;;;;9.20;5.20;;;20.70;97.10;;;;;;5096843;27;45426;-71
2022/06/30 01:56:39;;;;;;;10.10;5.13;;;20.70;97.60;;;;;;5098052;27;45422;-71
2022/06/30 01:59:06;;;;;;;9.10;5.45;;;20.70;97.90;;;;;;5097743;27;45827;-71
2022/06/30 02:01:33;;;;;;;9.07;5.30;;;20.70;97.70;;;;;;5098744;27;45466;-70
2022/06/30 02:04:46;;;;;;;8.48;4.45;;;20.70;97.20;;;;;;5098073;27;45387;-71
2022/06/30 02:06:48;;;;;;;10.35;5.68;;;20.70;96.40;;;;;;5094524;27;45623;-72
2022/06/30 02:09:15;;;;;;;8.77;5.18;;;20.50;97.20;;;;;;5095736;27;45625;-71
2022/06/30 02:11:43;;;;;;;11.23;5.13;;;20.50;97.60;;;;;;5098004;27;45410;-70
2022/06/30 02:14:10;;;;;;;6.95;4.90;;;20.60;97.80;;;;;;5103325;27;45620;-70
2022/06/30 02:16:37;;;;;;;10.73;4.88;;;20.70;97.90;;;;;;5103410;27;46062;-72
2022/06/30 02:19:04;;;;;;;8.07;5.07;;;20.70;97.50;;;;;;5104724;27;45487;-71
2022/06/30 02:21:30;;;;;;;7.80;5.03;;;20.70;97.30;;;;;;5098418;27;45544;-70
2022/06/30 02:23:57;;;;;;;7.40;5.30;;;20.70;97.40;;;;;;5104906;27;45419;-70
2022/06/30 02:26:24;;;;;;;6.00;4.95;;;20.80;97.30;;;;;;5105874;27;45622;-71
2022/06/30 02:28:52;;;;;;;8.50;4.57;;;20.70;97.30;;;;;;5105148;27;45355;-71
2022/06/30 02:31:20;;;;;;;5.72;4.55;;;20.70;97.40;;;;;;5104861;27;45363;-71
2022/06/30 02:33:46;;;;;;;8.50;4.72;;;20.70;97.40;;;;;;5106581;27;45567;-71
2022/06/30 02:36:13;;;;;;;7.63;4.57;;;20.70;97.40;;;;;;5105844;27;46284;-70
2022/06/30 02:38:40;;;;;;;6.40;4.40;;;20.70;97.40;;;;;;5106373;27;45400;-71
2022/06/30 02:41:07;;;;;;;6.80;4.50;;;20.70;97.40;;;;;;5102139;27;45430;-70
2022/06/30 02:43:33;;;;;;;7.75;4.72;;;20.70;97.30;;;;;;5106574;27;45318;-70
2022/06/30 02:46:02;;;;;;;7.80;4.82;;;20.70;97.20;;;;;;5106076;27;46607;-72
2022/06/30 02:48:28;;;;;;;5.70;4.43;;;20.60;97.30;;;;;;5106126;27;45289;-71
2022/06/30 02:50:55;;;;;;;7.40;4.75;;;20.70;97.30;;;;;;5105725;27;45308;-70
2022/06/30 02:53:23;;;;;;;6.85;4.78;;;20.60;97.40;;;;;;5100013;27;45699;-70
2022/06/30 02:55:50;;;;;;;6.60;4.35;;;20.60;97.30;;;;;;5100136;27;47477;-71
2022/06/30 02:58:17;;;;;;;6.97;4.55;;;20.60;97.00;;;;;;5099623;27;45422;-71
2022/06/30 03:00:44;;;;;;;13.40;4.97;;;20.50;97.00;;;;;;5101594;27;45558;-71
2022/06/30 03:03:12;;;;;;;11.75;5.18;;;20.40;96.50;;;;;;5100547;27;45513;-71
2022/06/30 03:05:39;;;;;;;10.63;4.55;;;20.30;97.00;;;;;;5100018;27;46980;-71
2022/06/30 03:08:06;;;;;;;12.40;4.90;;;20.20;97.60;;;;;;5099605;27;45411;-71
2022/06/30 03:10:32;;;;;;;7.03;4.43;;;20.20;97.70;;;;;;5099889;27;45224;-71
2022/06/30 03:12:59;;;;;;;7.88;4.70;;;20.20;97.80;;;;;;5098304;27;45577;-71
2022/06/30 03:15:26;;;;;;;11.43;4.88;;;20.10;98.20;;;;;;5099877;27;45529;-70
2022/06/30 03:17:53;;;;;;;10.88;4.47;;;20.10;98.50;;;;;;5100126;27;45316;-71
2022/06/30 03:20:21;;;;;;;11.32;4.43;;;20.10;98.20;;;;;;5097980;27;45378;-71
2022/06/30 03:22:48;;;;;;;7.80;4.68;;;20.10;98.30;;;;;;5101549;27;45419;-71
2022/06/30 03:25:15;;;;;;;10.48;4.53;;;20.10;98.00;;;;;;5097381;27;46562;-71
2022/06/30 03:27:41;;;;;;;11.05;4.20;;;20.20;97.70;;;;;;5100147;27;45640;-71
2022/06/30 03:30:09;;;;;;;6.05;4.10;;;20.20;97.70;;;;;;5097611;27;45288;-71
2022/06/30 03:32:36;;;;;;;10.07;4.60;;;20.20;97.40;;;;;;5103255;27;45438;-71
2022/06/30 03:35:03;;;;;;;11.88;4.28;;;20.20;97.40;;;;;;5100325;27;46436;-71
2022/06/30 03:37:31;;;;;;;7.05;4.00;;;20.20;97.40;;;;;;5102764;27;45245;-72
2022/06/30 03:39:58;;;;;;;11.98;4.10;;;20.10;97.50;;;;;;5099181;27;45544;-71
2022/06/30 03:42:24;;;;;;;9.63;4.07;;;20.10;97.70;;;;;;5097584;27;45447;-70
2022/06/30 03:44:51;;;;;;;15.43;4.43;;;20.00;97.60;;;;;;5098205;27;46633;-71
2022/06/30 03:47:18;;;;;;;12.10;5.10;;;20.00;97.10;;;;;;5098680;27;46004;-71
2022/06/30 03:49:45;;;;;;;12.65;4.13;;;19.80;97.50;;;;;;5101662;27;45241;-71
2022/06/30 03:52:12;;;;;;;14.48;4.25;;;19.70;97.70;;;;;;5101427;27;45403;-71
2022/06/30 03:54:41;;;;;;;11.93;4.18;;;19.70;98.10;;;;;;5102226;27;46574;-70
2022/06/30 03:57:08;;;;;;;11.43;4.22;;;19.70;98.20;;;;;;5097070;27;45335;-70
2022/06/30 03:59:35;;;;;;;9.25;4.53;;;19.80;98.30;;;;;;5099480;27;45392;-70
2022/06/30 04:02:02;;;;;;;12.02;4.57;;;19.80;98.40;;;;;;5099191;27;45530;-72
2022/06/30 04:04:28;;;;;;;14.48;4.28;;;19.80;98.20;;;;;;5099793;27;47211;-71
2022/06/30 04:06:55;;;;;;;5.93;3.55;;;19.80;97.80;;;;;;5099332;27;45563;-71
2022/06/30 04:09:22;;;;;;;8.48;3.70;;;19.90;98.10;;;;;;5096725;27;45567;-71
2022/06/30 04:11:50;;;;;;;14.00;4.97;;;19.90;98.00;;;;;;5098211;27;45451;-71
2022/06/30 04:14:17;;;;;;;13.48;4.20;;;20.00;98.00;;;;;;5100200;27;47536;-70
2022/06/30 04:16:43;;;;;;;11.65;4.28;;;20.00;97.80;;;;;;5097940;27;45451;-71
2022/06/30 04:19:10;;;;;;;8.65;3.75;;;20.00;97.80;;;;;;5098529;27;45429;-71
2022/06/30 04:21:37;;;;;;;8.05;4.15;;;20.10;97.60;;;;;;5102345;27;45405;-71
2022/06/30 04:24:04;;;;;;;9.77;4.15;;;20.10;97.70;;;;;;5102435;27;46643;-71
2022/06/30 04:26:31;;;;;;;5.47;3.65;;;20.20;97.40;;;;;;5103104;27;45384;-71
2022/06/30 04:28:59;;;;;;;8.38;3.78;;;20.10;97.40;;;;;;5104774;27;45298;-71
2022/06/30 04:34:10;;;;;;;11.32;4.60;;;20.10;97.40;;;;;;5100651;27;45449;-71
2022/06/30 04:36:37;;;;;;;6.82;3.63;;;20.10;97.50;;;;;;5104431;27;45357;-72
2022/06/30 04:39:04;;;;;;;8.27;3.90;;;20.10;97.60;;;;;;5104032;27;45364;-71
2022/06/30 04:41:30;;;;;;;9.65;3.33;;;20.10;97.60;;;;;;5103583;27;45287;-72
2022/06/30 04:43:59;;;;;;;7.75;3.97;;;20.10;97.50;;;;;;5104320;27;45269;-71
2022/06/30 04:46:27;;;;;;;9.60;3.50;;;20.20;97.50;;;;;;5104402;27;46444;-71
2022/06/30 04:48:55;;;;;;;10.27;3.97;;;20.20;97.40;;;;;;5104264;27;45465;-71
2022/06/30 04:51:22;;;;;;;6.15;3.70;;;20.30;97.50;;;;;;5102559;27;45465;-71
2022/06/30 04:53:49;;;;;;;7.10;3.42;;;20.30;97.30;;;;;;5099675;27;46803;-71
2022/06/30 04:56:17;;;;;;;8.95;3.67;;;20.30;97.30;;;;;;5100695;27;45404;-71
2022/06/30 04:58:45;;;;;;;10.75;3.90;;;20.30;97.20;;;;;;5100861;27;45663;-71
2022/06/30 05:01:13;;;;;;;9.70;3.80;;;20.30;97.10;;;;;;5097761;27;45265;-71
2022/06/30 05:03:40;;;;;;;7.78;3.95;;;20.40;97.00;;;;;;5098903;27;47195;-72
2022/06/30 05:06:07;;;;;;;5.85;3.20;;;20.40;97.00;;;;;;5097696;27;45887;-71
2022/06/30 05:08:35;;;;;;;9.10;3.92;;;20.40;97.00;;;;;;5100038;27;45424;-71
2022/06/30 05:11:02;;;;;;;8.40;3.78;;;20.40;97.00;;;;;;5096734;27;45555;-72
2022/06/30 05:13:29;;;;;;;10.23;3.50;;;20.40;96.90;;;;;;5097674;27;46691;-70
2022/06/30 05:15:56;;;;;;;6.22;3.72;;;20.50;96.90;;;;;;5098429;27;45428;-70
2022/06/30 05:18:26;;;;;;;8.10;3.33;;;20.50;96.70;;;;;;5100352;27;45396;-71
2022/06/30 05:20:53;;;;;;;11.02;3.83;;;20.50;96.90;;;;;;5096061;27;45423;-71
2022/06/30 05:23:20;;;;;;;9.02;3.97;;;20.50;96.80;;;;;;5098136;27;47318;-71
2022/06/30 05:28:31;;;;;;;6.00;3.50;;;20.60;96.50;;;;;;5088537;27;45481;-72
2022/06/30 05:30:58;;;;;;;5.10;3.80;;;20.60;96.50;;;;;;5099672;27;45193;-71
2022/06/30 05:33:26;;;;;;;7.97;3.58;;;20.70;96.30;;;;;;5101152;27;46084;-71
2022/06/30 05:35:54;;;;;;;7.45;3.30;;;20.70;96.40;;;;;;5096871;27;46168;-71
2022/06/30 05:38:21;;;;;;;10.05;3.95;;;20.70;96.30;;;;;;5098182;27;45685;-71
2022/06/30 05:40:48;;;;;;;7.18;3.75;;;20.80;96.40;;;;;;5099479;27;45517;-71
2022/06/30 05:43:16;;;;;;;10.15;4.18;;;20.90;96.40;;;;;;5097440;27;46623;-71
2022/06/30 05:45:44;;;;;;;7.80;3.70;;;20.90;96.20;;;;;;5096407;27;45195;-72
2022/06/30 05:48:11;;;;;;;8.18;3.47;;;20.90;96.10;;;;;;5096812;27;45312;-72
2022/06/30 05:50:39;;;;;;;10.80;3.65;;;20.90;96.20;;;;;;5096176;27;45280;-71
2022/06/30 05:53:06;;;;;;;7.25;3.60;;;21.00;96.40;;;;;;5099070;27;45795;-70
2022/06/30 05:55:34;;;;;;;7.95;4.18;;;21.00;96.20;;;;;;5097493;27;45437;-71
2022/06/30 05:58:03;;;;;;;11.65;4.03;;;21.10;96.30;;;;;;5100927;27;45482;-71
2022/06/30 06:00:32;;;;;;;9.63;3.80;;;21.10;96.10;;;;;;5098071;27;45941;-71
2022/06/30 06:02:59;;;;;;;7.95;4.78;;;21.10;96.10;;;;;;5095747;27;47077;-70
2022/06/30 06:05:26;;;;;;;10.23;4.05;;;21.20;96.20;;;;;;5096137;27;45406;-71
2022/06/30 06:07:54;;;;;;;13.52;4.22;;;21.20;96.30;;;;;;5098935;27;45421;-71
2022/06/30 06:10:22;;;;;;;5.70;3.65;;;21.20;96.30;;;;;;5094669;27;45670;-72
2022/06/30 06:12:48;;;;;;;7.68;3.95;;;21.30;96.20;;;;;;5094785;27;46418;-71
2022/06/30 06:15:16;;;;;;;9.05;3.90;;;21.30;96.40;;;;;;5097136;27;45543;-72
2022/06/30 06:17:44;;;;;;;7.07;4.30;;;21.30;96.40;;;;;;5096699;27;45455;-70
2022/06/30 06:20:13;;;;;;;5.60;3.92;;;21.30;96.30;;;;;;5098489;27;45443;-70
2022/06/30 06:22:39;;;;;;;6.57;4.03;;;21.40;96.30;;;;;;5101823;27;47446;-71
2022/06/30 06:25:09;;;;;;;8.95;4.72;;;21.40;96.60;;;;;;5102607;27;45493;-71
2022/06/30 06:27:36;;;;;;;11.85;4.47;;;21.40;96.40;;;;;;5101303;27;45375;-71
2022/06/30 06:30:03;;;;;;;8.90;4.40;;;21.40;96.50;;;;;;5098921;27;47013;-71
2022/06/30 06:32:30;;;;;;;5.88;4.07;;;21.40;96.50;;;;;;5098985;27;47328;-71
2022/06/30 06:34:57;;;;;;;8.05;4.97;;;21.40;96.70;;;;;;5096964;27;45489;-71
2022/06/30 06:37:24;;;;;;;12.07;4.80;;;21.40;97.00;;;;;;5095274;27;45465;-71
2022/06/30 06:39:51;;;;;;;9.43;4.80;;;21.40;97.00;;;;;;5099575;27;45327;-71
2022/06/30 06:42:19;;;;;;;9.75;4.65;;;21.40;97.20;;;;;;5095086;27;47002;-71
2022/06/30 06:44:47;;;;;;;8.77;4.60;;;21.40;97.10;;;;;;5096867;27;45381;-71
2022/06/30 06:47:14;;;;;;;6.97;3.97;;;21.40;97.00;;;;;;5097088;27;45567;-71
2022/06/30 06:49:41;;;;;;;5.07;3.70;;;21.40;96.90;;;;;;5101338;27;45525;-71
2022/06/30 06:52:08;;;;;;;6.82;3.80;;;21.40;97.10;;;;;;5102676;27;46387;-71
2022/06/30 06:54:35;;;;;;;5.65;3.88;;;21.40;96.90;;;;;;5102482;27;45424;-71
2022/06/30 06:57:02;;;;;;;6.35;3.60;;;21.50;96.70;;;;;;5102753;27;45431;-72
2022/06/30 06:59:30;;;;;;;7.13;3.80;;;21.50;96.60;;;;;;5105888;27;45331;-71
2022/06/30 07:01:57;;;;;;;10.68;3.88;;;21.50;96.50;;;;;;5105575;27;46568;-72
2022/06/30 07:04:23;;;;;;;10.98;4.40;;;21.60;96.40;;;;;;5105657;27;45394;-71
2022/06/30 07:06:50;;;;;;;9.75;4.13;;;21.50;96.00;;;;;;5106193;27;45380;-71
2022/06/30 07:09:17;;;;;;;9.68;3.20;;;21.60;96.30;;;;;;5105106;27;45302;-71
2022/06/30 07:11:44;;;;;;;8.43;3.47;;;21.60;95.40;;;;;;5105539;27;47539;-70
2022/06/30 07:14:11;;;;;;;13.07;3.25;;;21.50;94.60;;;;;;5105651;27;45801;-71
2022/06/30 07:16:39;;;;;;;5.07;3.00;;;21.60;94.30;;;;;;5105793;27;45360;-71
2022/06/30 07:19:06;;;;;;;11.07;3.55;;;21.60;94.60;;;;;;5105279;27;45613;-71
2022/06/30 07:21:33;;;;;;;10.82;3.05;;;21.60;94.70;;;;;;5104925;27;48608;-71
2022/06/30 07:23:59;;;;;;;6.15;2.80;;;21.60;94.40;;;;;;5100002;27;45462;-71
2022/06/30 07:26:26;;;;;;;13.88;3.20;;;21.60;94.60;;;;;;5100173;27;45561;-71
2022/06/30 07:28:53;;;;;;;5.90;3.10;;;21.70;94.70;;;;;;5095173;27;45338;-70
2022/06/30 07:31:20;;;;;;;8.75;3.08;;;21.70;94.70;;;;;;5099034;27;45476;-73
2022/06/30 07:33:48;;;;;;;10.32;3.58;;;21.70;95.30;;;;;;5092929;27;45458;-73
2022/06/30 07:36:15;;;;;;;11.45;3.00;;;21.70;95.40;;;;;;5101793;27;45292;-72
2022/06/30 07:38:44;;;;;;;6.80;2.38;;;21.70;94.50;;;;;;5099241;27;45589;-72
2022/06/30 07:41:11;;;;;;;18.25;3.30;;;21.80;94.00;;;;;;5096831;27;47839;-72
2022/06/30 07:43:38;;;;;;;14.40;3.38;;;21.80;94.90;;;;;;5102958;27;45323;-71
2022/06/30 07:46:05;;;;;;;5.55;2.20;;;21.90;94.70;;;;;;5096548;27;45403;-72
2022/06/30 07:48:32;;;;;;;7.55;2.42;;;21.90;93.30;;;;;;5102040;27;45458;-72
2022/06/30 07:51:00;;;;;;;6.30;2.35;;;21.90;92.40;;;;;;5104740;27;46072;-72
2022/06/30 07:53:27;;;;;;;8.70;2.20;;;21.90;92.40;;;;;;5105393;27;45344;-72
2022/06/30 07:55:54;;;;;;;4.82;2.10;;;21.90;91.80;;;;;;5105542;27;45407;-71
2022/06/30 07:58:21;;;;;;;7.57;2.40;;;21.90;91.90;;;;;;5105518;27;45391;-72
2022/06/30 08:00:47;;;;;;;6.40;2.08;;;22.00;92.00;;;;;;5102973;27;45367;-72
2022/06/30 08:03:14;;;;;;;5.40;2.08;;;22.00;92.10;;;;;;5105244;27;45293;-72
2022/06/30 08:05:41;;;;;;;4.75;1.85;;;22.00;91.90;;;;;;5104934;27;45342;-72
2022/06/30 08:08:09;;;;;;;10.18;2.50;;;22.10;92.30;;;;;;5104963;27;45243;-72
2022/06/30 08:10:36;;;;;;;9.63;2.58;;;22.10;92.60;;;;;;5103788;27;46074;-72
2022/06/30 08:13:03;;;;;;;11.82;2.25;;;22.10;92.60;;;;;;5104814;27;45205;-72
2022/06/30 08:15:30;;;;;;;7.30;2.10;;;22.10;92.60;;;;;;5105486;27;45424;-72
2022/06/30 08:18:01;;;;;;;5.40;2.67;;;22.10;92.60;;;;;;5105307;27;45529;-72
2022/06/30 08:20:28;;;;;;;7.40;2.25;;;22.10;92.60;;;;;;5103987;27;45396;-71
2022/06/30 08:22:55;;;;;;;7.68;2.80;;;22.10;92.30;;;;;;5104257;27;45349;-72
2022/06/30 08:25:24;;;;;;;6.18;2.33;;;22.20;92.20;;;;;;5105192;27;45322;-73
2022/06/30 08:27:51;;;;;;;3.88;2.00;;;22.20;92.20;;;;;;5104355;27;45201;-72
2022/06/30 08:30:18;;;;;;;5.55;2.10;;;22.30;92.10;;;;;;5103965;27;45343;-72
2022/06/30 08:32:45;;;;;;;8.85;2.22;;;22.30;90.30;;;;;;5104531;27;45832;-73
2022/06/30 08:35:13;;;;;;;2.88;1.70;;;22.40;90.90;;;;;;5104789;27;45390;-72
2022/06/30 08:37:40;;;;;;;8.00;1.98;;;22.40;90.70;;;;;;5104938;27;45468;-72
2022/06/30 08:42:55;;;;;;;10.05;2.67;;;22.40;89.70;;;;;;5096565;27;45567;-73
2022/06/30 08:45:24;;;;;;;7.30;2.47;;;22.40;89.00;;;;;;5100625;27;45315;-72
2022/06/30 08:47:52;;;;;;;12.80;2.65;;;22.40;90.70;;;;;;5100860;27;45632;-72
2022/06/30 08:50:19;;;;;;;6.93;2.00;;;22.50;90.30;;;;;;5099057;27;47978;-73
2022/06/30 08:52:50;;;;;;;7.38;2.13;;;22.50;90.30;;;;;;5098251;27;45781;-74
2022/06/30 08:55:17;;;;;;;7.55;2.47;;;22.50;90.60;;;;;;5100375;27;45493;-72
2022/06/30 08:57:46;;;;;;;4.95;2.00;;;22.40;90.30;;;;;;5098068;27;45626;-73
2022/06/30 09:00:17;;;;;;;13.32;2.10;;;22.50;90.10;;;;;;5095083;27;48153;-73
2022/06/30 09:02:46;;;;;;;9.25;2.13;;;22.50;90.00;;;;;;5098960;27;45354;-72
2022/06/30 09:05:13;;;;;;;5.80;1.90;;;22.50;90.60;;;;;;5101306;27;45318;-73
2022/06/30 09:07:40;;;;;;;12.45;3.10;;;22.50;90.80;;;;;;5100063;27;45298;-73
2022/06/30 09:10:08;;;;;;;8.70;2.22;;;22.50;90.40;;;;;;5096013;27;46289;-74
2022/06/30 09:12:35;;;;;;;5.43;1.83;;;22.50;90.50;;;;;;5098772;27;46169;-73
2022/06/30 09:15:02;;;;;;;5.28;2.10;;;22.50;90.60;;;;;;5099457;27;45430;-73
2022/06/30 09:17:31;;;;;;;15.13;2.42;;;22.40;90.60;;;;;;5102267;27;45404;-73
2022/06/30 09:20:00;;;;;;;6.85;2.08;;;22.40;90.80;;;;;;5101113;27;47523;-73
2022/06/30 09:22:29;;;;;;;7.75;2.65;;;23.00;85.00;;;;;;5099903;27;45495;-72
2022/06/30 09:25:00;;;;;;;8.13;2.30;;;23.00;87.10;;;;;;5101739;27;45505;-72
2022/06/30 09:27:29;;;;;;;5.53;2.40;;;23.10;87.70;;;;;;5103499;27;45307;-72
2022/06/30 09:30:01;;;;;;;3.88;2.25;;;23.10;88.10;;;;;;5095630;27;45458;-72
2022/06/30 09:32:28;;;;;;;5.03;1.88;;;23.20;86.20;;;;;;5101492;27;45459;-72
2022/06/30 09:35:09;;;;;;;4.00;1.55;;;23.10;88.20;;;;;;5100793;27;45455;-72
2022/06/30 09:37:37;;;;;;;5.40;2.35;;;22.90;90.30;;;;;;5102745;27;45469;-72
2022/06/30 09:40:05;;;;;;;8.05;2.47;;;22.80;90.70;;;;;;5095817;27;45533;-72
2022/06/30 09:42:40;;;;;;;5.55;2.80;;;22.90;90.00;;;;;;5098573;27;45369;-72
2022/06/30 09:45:10;;;;;;;7.82;2.25;;;23.10;87.50;;;;;;5094486;27;45503;-72
2022/06/30 09:47:37;;;;;;;10.57;2.47;;;23.00;90.20;;;;;;5101605;27;45458;-72
2022/06/30 09:50:08;;;;;;;8.75;2.83;;;22.80;90.60;;;;;;5095275;27;46287;-72
2022/06/30 09:52:35;;;;;;;7.13;3.00;;;22.90;90.20;;;;;;5101385;27;45283;-72
2022/06/30 09:55:03;;;;;;;5.15;2.10;;;23.10;90.30;;;;;;5097354;27;45374;-74
2022/06/30 09:57:32;;;;;;;7.55;2.45;;;23.40;88.00;;;;;;5099297;27;45397;-72
2022/06/30 10:00:05;;;;;;;12.65;2.42;;;23.30;87.30;;;;;;5097853;27;46588;-72
2022/06/30 10:02:33;;;;;;;6.82;1.90;;;23.20;86.80;;;;;;5095255;27;45822;-74
2022/06/30 10:05:01;;;;;;;3.95;1.80;;;23.20;85.60;;;;;;5096948;27;45451;-73
2022/06/30 10:07:33;;;;;;;4.93;1.50;;;23.00;87.00;;;;;;5100671;27;45660;-72
2022/06/30 10:10:01;;;;;;;4.20;1.92;;;23.10;85.90;;;;;;5097997;27;45500;-73
2022/06/30 10:12:28;;;;;;;3.65;1.48;;;23.30;85.10;;;;;;5099275;27;45431;-73
2022/06/30 10:14:55;;;;;;;6.50;2.10;;;23.20;85.20;;;;;;5098357;27;45488;-73
2022/06/30 10:17:24;;;;;;;2.67;1.48;;;22.90;84.60;;;;;;5093662;27;45584;-74
2022/06/30 10:19:52;;;;;;;4.30;1.63;;;23.10;85.00;;;;;;5096140;27;45351;-73
2022/06/30 10:22:22;;;;;;;4.97;2.67;;;23.00;84.40;;;;;;5098032;27;45418;-73
2022/06/30 10:24:51;;;;;;;3.38;1.67;;;23.10;85.00;;;;;;5099574;27;45205;-73
2022/06/30 10:27:20;;;;;;;5.00;1.80;;;22.90;89.20;;;;;;5101451;27;45397;-74
2022/06/30 10:29:50;;;;;;;9.65;2.60;;;23.00;90.10;;;;;;5098431;27;48554;-73
2022/06/30 10:32:31;;;;;;;9.35;2.45;;;23.10;87.90;;;;;;5096154;27;45439;-72
2022/06/30 10:35:10;;;;;;;6.82;2.60;;;23.50;86.50;;;;;;5101249;27;45756;-73
2022/06/30 10:37:41;;;;;;;5.28;2.40;;;23.50;86.80;;;;;;5099365;27;45789;-73
2022/06/30 10:40:20;;;;;;;19.25;2.70;;;23.50;86.60;;;;;;5098504;27;46112;-71
2022/06/30 10:42:48;;;;;;;12.60;3.13;;;23.50;86.60;;;;;;5102058;27;45537;-71
2022/06/30 10:45:35;;;;;;;7.25;2.85;;;23.30;88.70;;;;;;5099568;27;45617;-74
2022/06/30 10:48:03;;;;;;;21.65;4.20;;;23.30;89.60;;;;;;5102706;27;45433;-74
2022/06/30 10:50:31;;;;;;;14.45;3.42;;;23.20;89.10;;;;;;5096466;27;45477;-74
2022/06/30 10:52:58;;;;;;;18.45;4.47;;;23.10;90.30;;;;;;5101530;27;45439;-75
2022/06/30 10:55:27;;;;;;;13.73;3.50;;;23.20;91.00;;;;;;5101107;27;45369;-73
2022/06/30 10:58:06;;;;;;;18.95;3.05;;;23.10;90.80;;;;;;5100850;27;45495;-73
2022/06/30 11:00:50;;;;;;;20.33;3.50;;;23.10;90.90;;;;;;5099229;27;45648;-73
2022/06/30 11:03:56;;;;;;;11.60;2.78;;;23.10;90.90;;;;;;5101735;27;45372;-73
2022/06/30 11:06:26;;;;;;;12.25;2.85;;;23.00;90.80;;;;;;5094377;27;45479;-74
2022/06/30 11:08:57;;;;;;;8.50;2.63;;;23.00;90.90;;;;;;5100611;27;45247;-73
2022/06/30 11:11:44;;;;;;;11.52;2.47;;;22.90;90.90;;;;;;5103474;27;45436;-73
2022/06/30 11:14:27;;;;;;;12.90;3.25;;;22.90;90.90;;;;;;5097073;27;45387;-73
2022/06/30 11:16:54;;;;;;;14.07;2.72;;;22.90;90.90;;;;;;5100360;27;45527;-73
2022/06/30 11:19:24;;;;;;;11.80;2.67;;;22.90;91.00;;;;;;5097975;27;45313;-73
2022/06/30 11:21:51;;;;;;;8.25;2.50;;;22.90;91.00;;;;;;5094393;27;46543;-73
2022/06/30 11:24:23;;;;;;;10.23;2.95;;;22.90;91.00;;;;;;5099834;27;45532;-73
2022/06/30 11:29:36;;;;;;;7.60;2.40;;;22.90;91.10;;;;;;5098234;27;45504;-73
2022/06/30 11:32:03;;;;;;;7.78;2.33;;;22.90;91.10;;;;;;5098831;27;45470;-73
2022/06/30 11:34:31;;;;;;;7.05;2.10;;;22.90;91.30;;;;;;5103135;27;45486;-73
2022/06/30 11:36:58;;;;;;;9.35;2.40;;;22.80;91.10;;;;;;5097351;27;45485;-73
2022/06/30 11:39:26;;;;;;;15.80;2.65;;;22.80;91.10;;;;;;5099981;27;45534;-73
2022/06/30 11:41:58;;;;;;;9.52;2.20;;;22.80;91.00;;;;;;5097755;27;47037;-73
2022/06/30 11:44:26;;;;;;;5.95;1.90;;;22.80;91.10;;;;;;5095571;27;45242;-73
2022/06/30 11:46:56;;;;;;;5.85;2.03;;;22.80;91.20;;;;;;5100041;27;45436;-73
2022/06/30 11:49:25;;;;;;;7.20;2.38;;;22.80;91.20;;;;;;5102109;27;45574;-73
2022/06/30 11:51:52;;;;;;;7.00;2.05;;;22.80;91.20;;;;;;5099835;27;47241;-73
2022/06/30 11:54:24;;;;;;;9.73;2.33;;;22.80;91.20;;;;;;5093666;27;45428;-73
2022/06/30 11:56:54;;;;;;;6.85;2.22;;;22.80;91.10;;;;;;5101021;27;45366;-72
2022/06/30 11:59:22;;;;;;;7.72;2.10;;;22.70;91.10;;;;;;5101688;27;45424;-74
2022/06/30 12:02:06;;;;;;;7.45;1.92;;;22.70;91.20;;;;;;5101545;27;45448;-73
2022/06/30 12:04:34;;;;;;;6.05;1.80;;;22.70;91.20;;;;;;5096529;27;45382;-73
2022/06/30 12:07:02;;;;;;;5.43;1.75;;;22.70;91.20;;;;;;5102113;27;45667;-74
2022/06/30 12:09:29;;;;;;;7.88;2.08;;;22.80;91.20;;;;;;5095847;27;45405;-72
2022/06/30 12:11:58;;;;;;;3.50;1.50;;;22.70;91.20;;;;;;5103327;27;46391;-73
2022/06/30 12:14:26;;;;;;;6.57;1.80;;;22.70;91.00;;;;;;5104464;27;45455;-73
2022/06/30 12:16:57;;;;;;;3.85;1.70;;;22.70;91.10;;;;;;5104702;27;45405;-72
2022/06/30 12:19:25;;;;;;;5.68;1.73;;;22.70;91.50;;;;;;5103547;27;45510;-73
2022/06/30 12:21:53;;;;;;;7.50;1.70;;;22.80;91.20;;;;;;5104606;27;46609;-73
2022/06/30 12:24:23;;;;;;;4.40;1.80;;;22.80;91.20;;;;;;5105107;27;45367;-73
2022/06/30 12:26:51;;;;;;;5.18;1.50;;;22.70;91.20;;;;;;5104979;27;45221;-73
2022/06/30 12:29:19;;;;;;;5.75;2.22;;;22.80;91.20;;;;;;5103783;27;45573;-73
2022/06/30 12:31:58;;;;;;;6.63;1.73;;;22.70;91.10;;;;;;5104555;27;48366;-73
2022/06/30 12:34:25;;;;;;;4.95;1.73;;;22.70;91.00;;;;;;5104814;27;45512;-72
2022/06/30 12:36:52;;;;;;;4.60;1.65;;;22.70;91.20;;;;;;5105218;27;45284;-73
2022/06/30 12:39:20;;;;;;;8.75;2.35;;;22.70;91.10;;;;;;5103632;27;45496;-72
2022/06/30 12:41:47;;;;;;;3.10;1.50;;;22.70;91.10;;;;;;5104212;27;46383;-73
2022/06/30 12:44:14;;;;;;;1.92;1.33;;;22.70;91.10;;;;;;5104274;27;45337;-73
2022/06/30 12:46:44;;;;;;;4.97;1.52;;;22.70;91.00;;;;;;5104665;27;45360;-73
2022/06/30 12:49:22;;;;;;;3.95;1.58;;;22.70;91.00;;;;;;5104672;27;45321;-73
2022/06/30 12:51:49;;;;;;;4.95;1.92;;;22.70;91.00;;;;;;5102973;27;45441;-73
2022/06/30 12:54:23;;;;;;;2.72;1.70;;;22.70;91.10;;;;;;5103633;27;45308;-74
2022/06/30 12:56:51;;;;;;;3.65;1.52;;;22.70;90.90;;;;;;5100646;27;45324;-73
2022/06/30 12:59:19;;;;;;;5.32;1.30;;;22.70;90.80;;;;;;5104547;27;45584;-72
2022/06/30 13:01:48;;;;;;;2.95;1.40;;;22.70;90.80;;;;;;5104182;27;46699;-73